FWV912 KLAX-EDDM
Flight info
| Callsign | FWV912 |
|---|---|
| Flight time | N/A |
| Altitude | 39000 |
| Route | OSHNN1 BEALE J146 DICEE DCT KD45Q DCT KD54U DCT KD69A DCT KP75C DCT KP81E DCT KP87G DCT KP12M DCT VETRO DCT 5330N07000W DCT DORYY NATT KESIX DCT APSOV DCT PEPOD DCT MAKUX DCT SOSIM L15 GIGTO UQ4 WAL M16 DOLAS DCT NAVPI DCT DOJOH DCT DODEN DCT TABUM DCT BOMBI T104 ROKIL ROKI1A |
| Aircraft | A388/J-SADE2E3FGHIJ3J4J5M1RWXY/LB1D1 |
Departure
| Time | N/A |
|---|---|
| Airport | Los Angeles International Airport (KLAX) |
Arrival
| Time | 2026-05-01 08:35 |
|---|---|
| Airport | Munich Airport (EDDM) |
| Time | Latitude | Longitude | Altitude | Speed | Heading |
|---|---|---|---|---|---|
| 2026-05-01 07:58 | 50.51818 | 8.04037 | 34289 ft | 483 kts | 134° |
| 2026-05-01 07:59 | 50.47082 | 8.11460 | 33735 ft | 478 kts | 134° |
| 2026-05-01 07:59 | 50.42381 | 8.18807 | 33205 ft | 474 kts | 134° |
| 2026-05-01 08:00 | 50.33109 | 8.33237 | 32176 ft | 466 kts | 133° |
| 2026-05-01 08:01 | 50.26246 | 8.43864 | 31433 ft | 460 kts | 133° |
| 2026-05-01 08:01 | 50.23974 | 8.47372 | 31176 ft | 458 kts | 133° |
| 2026-05-01 08:01 | 50.21709 | 8.50863 | 30925 ft | 456 kts | 133° |
| 2026-05-01 08:02 | 50.17207 | 8.57790 | 30434 ft | 453 kts | 133° |
| 2026-05-01 08:02 | 50.14965 | 8.61232 | 30147 ft | 451 kts | 133° |
| 2026-05-01 08:03 | 50.10521 | 8.68041 | 29581 ft | 446 kts | 133° |
| 2026-05-01 08:03 | 50.08309 | 8.71422 | 29312 ft | 444 kts | 133° |
| 2026-05-01 08:03 | 50.03924 | 8.78116 | 28758 ft | 440 kts | 133° |
| 2026-05-01 08:04 | 49.99573 | 8.84738 | 28215 ft | 435 kts | 133° |
| 2026-05-01 08:04 | 49.95259 | 8.91284 | 27686 ft | 431 kts | 133° |
| 2026-05-01 08:05 | 49.90983 | 8.97758 | 27162 ft | 428 kts | 134° |
| 2026-05-01 08:05 | 49.88854 | 9.00972 | 26902 ft | 426 kts | 134° |
| 2026-05-01 08:05 | 49.86738 | 9.04166 | 26651 ft | 424 kts | 134° |
| 2026-05-01 08:06 | 49.82523 | 9.10513 | 26142 ft | 422 kts | 133° |
| 2026-05-01 08:06 | 49.78324 | 9.16822 | 25672 ft | 419 kts | 134° |
| 2026-05-01 08:07 | 49.74157 | 9.23066 | 25182 ft | 415 kts | 134° |
| 2026-05-01 08:07 | 49.70017 | 9.29252 | 24709 ft | 413 kts | 134° |
| 2026-05-01 08:08 | 49.67955 | 9.32327 | 24454 ft | 411 kts | 134° |
| 2026-05-01 08:08 | 49.63854 | 9.38433 | 24013 ft | 408 kts | 133° |
| 2026-05-01 08:09 | 49.59832 | 9.44549 | 23470 ft | 403 kts | 131° |
| 2026-05-01 08:09 | 49.57945 | 9.47722 | 23209 ft | 400 kts | 129° |
| 2026-05-01 08:09 | 49.56092 | 9.50891 | 22936 ft | 397 kts | 130° |
| 2026-05-01 08:10 | 49.52981 | 9.56158 | 22400 ft | 412 kts | 133° |
| 2026-05-01 08:10 | 49.48987 | 9.62804 | 21899 ft | 425 kts | 133° |
| 2026-05-01 08:11 | 49.44988 | 9.69421 | 21400 ft | 420 kts | 133° |
| 2026-05-01 08:11 | 49.41081 | 9.75856 | 20960 ft | 398 kts | 130° |
| 2026-05-01 08:12 | 49.37422 | 9.81876 | 20463 ft | 376 kts | 130° |
| 2026-05-01 08:12 | 49.35639 | 9.84808 | 20229 ft | 375 kts | 130° |
| 2026-05-01 08:12 | 49.32088 | 9.90639 | 19741 ft | 373 kts | 130° |
| 2026-05-01 08:13 | 49.30341 | 9.93500 | 19506 ft | 371 kts | 130° |
| 2026-05-01 08:13 | 49.28583 | 9.96377 | 19269 ft | 370 kts | 130° |
| 2026-05-01 08:13 | 49.25082 | 10.02093 | 18798 ft | 366 kts | 130° |
| 2026-05-01 08:14 | 49.23342 | 10.04929 | 18547 ft | 364 kts | 130° |
| 2026-05-01 08:14 | 49.21611 | 10.07750 | 18284 ft | 363 kts | 130° |
| 2026-05-01 08:14 | 49.19888 | 10.10555 | 18010 ft | 362 kts | 130° |
| 2026-05-01 08:14 | 49.18168 | 10.13349 | 17803 ft | 360 kts | 130° |
| 2026-05-01 08:15 | 49.16449 | 10.16139 | 17601 ft | 359 kts | 130° |
| 2026-05-01 08:15 | 49.13033 | 10.21675 | 17208 ft | 358 kts | 130° |
| 2026-05-01 08:15 | 49.11325 | 10.24441 | 17001 ft | 358 kts | 130° |
| 2026-05-01 08:16 | 49.09618 | 10.27200 | 16792 ft | 356 kts | 131° |
| 2026-05-01 08:16 | 49.07913 | 10.29952 | 16618 ft | 356 kts | 131° |
| 2026-05-01 08:16 | 49.06217 | 10.32687 | 16426 ft | 355 kts | 131° |
| 2026-05-01 08:16 | 49.04518 | 10.35423 | 16227 ft | 354 kts | 131° |
| 2026-05-01 08:17 | 49.02831 | 10.38135 | 16007 ft | 351 kts | 130° |
| 2026-05-01 08:17 | 49.01151 | 10.40832 | 15823 ft | 351 kts | 130° |
| 2026-05-01 08:17 | 48.99470 | 10.43533 | 15637 ft | 352 kts | 131° |
| 2026-05-01 08:17 | 48.97762 | 10.46206 | 15431 ft | 351 kts | 133° |
| 2026-05-01 08:18 | 48.96058 | 10.48738 | 15201 ft | 351 kts | 133° |
| 2026-05-01 08:18 | 48.92630 | 10.53879 | 14711 ft | 348 kts | 133° |
| 2026-05-01 08:19 | 48.89191 | 10.58990 | 14234 ft | 346 kts | 133° |
| 2026-05-01 08:19 | 48.87479 | 10.61539 | 13963 ft | 344 kts | 133° |
| 2026-05-01 08:19 | 48.85775 | 10.64058 | 13706 ft | 341 kts | 133° |
| 2026-05-01 08:19 | 48.84079 | 10.66558 | 13436 ft | 341 kts | 133° |
| 2026-05-01 08:20 | 48.82387 | 10.69090 | 13186 ft | 340 kts | 133° |
| 2026-05-01 08:20 | 48.80712 | 10.71583 | 12925 ft | 336 kts | 133° |
| 2026-05-01 08:20 | 48.79041 | 10.74082 | 12678 ft | 337 kts | 133° |
| 2026-05-01 08:20 | 48.77381 | 10.76579 | 12414 ft | 336 kts | 133° |
| 2026-05-01 08:21 | 48.75747 | 10.79026 | 12164 ft | 327 kts | 133° |
| 2026-05-01 08:21 | 48.74148 | 10.81409 | 11906 ft | 316 kts | 133° |
| 2026-05-01 08:21 | 48.72606 | 10.83713 | 11659 ft | 306 kts | 133° |
| 2026-05-01 08:21 | 48.71109 | 10.85936 | 11413 ft | 298 kts | 133° |
| 2026-05-01 08:22 | 48.69645 | 10.88107 | 11167 ft | 291 kts | 133° |
| 2026-05-01 08:22 | 48.68209 | 10.90228 | 10928 ft | 286 kts | 133° |
| 2026-05-01 08:22 | 48.66796 | 10.92332 | 10683 ft | 282 kts | 133° |
| 2026-05-01 08:22 | 48.65394 | 10.94392 | 10445 ft | 281 kts | 133° |
| 2026-05-01 08:23 | 48.64000 | 10.96444 | 10393 ft | 280 kts | 133° |
| 2026-05-01 08:23 | 48.62608 | 10.98506 | 10394 ft | 281 kts | 133° |
| 2026-05-01 08:23 | 48.61209 | 11.00569 | 10391 ft | 281 kts | 133° |
| 2026-05-01 08:23 | 48.59822 | 11.02600 | 10204 ft | 282 kts | 133° |
| 2026-05-01 08:24 | 48.58396 | 11.04701 | 9952 ft | 282 kts | 133° |
| 2026-05-01 08:24 | 48.57001 | 11.06735 | 9676 ft | 276 kts | 133° |
| 2026-05-01 08:24 | 48.55637 | 11.08717 | 9417 ft | 275 kts | 133° |
| 2026-05-01 08:24 | 48.54249 | 11.10757 | 9161 ft | 274 kts | 133° |
| 2026-05-01 08:25 | 48.52886 | 11.12784 | 8897 ft | 274 kts | 133° |
| 2026-05-01 08:25 | 48.51530 | 11.14786 | 8616 ft | 272 kts | 133° |
| 2026-05-01 08:25 | 48.50184 | 11.16799 | 8374 ft | 270 kts | 133° |
| 2026-05-01 08:25 | 48.48851 | 11.18780 | 8128 ft | 270 kts | 133° |
| 2026-05-01 08:26 | 48.47536 | 11.20744 | 7879 ft | 268 kts | 133° |
| 2026-05-01 08:26 | 48.46207 | 11.22714 | 7630 ft | 269 kts | 133° |
| 2026-05-01 08:26 | 48.44881 | 11.24701 | 7392 ft | 268 kts | 133° |
| 2026-05-01 08:26 | 48.43550 | 11.26685 | 7163 ft | 261 kts | 133° |
| 2026-05-01 08:27 | 48.42279 | 11.28565 | 6908 ft | 260 kts | 133° |
| 2026-05-01 08:27 | 48.40988 | 11.30492 | 6671 ft | 262 kts | 133° |
| 2026-05-01 08:27 | 48.39698 | 11.32428 | 6418 ft | 261 kts | 133° |
| 2026-05-01 08:27 | 48.38415 | 11.34342 | 6157 ft | 256 kts | 133° |
| 2026-05-01 08:28 | 48.37388 | 11.36433 | 5916 ft | 245 kts | 115° |
| 2026-05-01 08:28 | 48.36684 | 11.38726 | 5661 ft | 239 kts | 114° |
| 2026-05-01 08:28 | 48.35994 | 11.40965 | 5399 ft | 233 kts | 114° |
| 2026-05-01 08:28 | 48.35330 | 11.43134 | 5141 ft | 226 kts | 114° |
| 2026-05-01 08:29 | 48.34677 | 11.45261 | 4915 ft | 223 kts | 112° |
| 2026-05-01 08:29 | 48.34568 | 11.45660 | 4859 ft | 222 kts | 110° |
| 2026-05-01 08:29 | 48.34363 | 11.46627 | 4716 ft | 220 kts | 103° |
| 2026-05-01 08:29 | 48.34213 | 11.48889 | 4483 ft | 217 kts | 90° |
| 2026-05-01 08:30 | 48.34313 | 11.51140 | 4245 ft | 215 kts | 86° |
| 2026-05-01 08:30 | 48.34472 | 11.53361 | 4037 ft | 211 kts | 85° |
| 2026-05-01 08:30 | 48.34643 | 11.55505 | 3978 ft | 202 kts | 86° |
| 2026-05-01 08:30 | 48.34795 | 11.57536 | 3989 ft | 187 kts | 85° |
| 2026-05-01 08:31 | 48.34931 | 11.59308 | 3906 ft | 156 kts | 86° |
| 2026-05-01 08:31 | 48.35050 | 11.60804 | 3678 ft | 134 kts | 86° |
| 2026-05-01 08:31 | 48.35077 | 11.61177 | 3632 ft | 131 kts | 86° |
| 2026-05-01 08:31 | 48.35177 | 11.62501 | 3450 ft | 123 kts | 85° |
| 2026-05-01 08:32 | 48.35287 | 11.63804 | 3266 ft | 127 kts | 85° |
| 2026-05-01 08:32 | 48.35373 | 11.65125 | 3095 ft | 129 kts | 86° |
| 2026-05-01 08:32 | 48.35484 | 11.66469 | 2914 ft | 128 kts | 84° |
| 2026-05-01 08:32 | 48.35586 | 11.67786 | 2750 ft | 126 kts | 84° |
| 2026-05-01 08:33 | 48.35683 | 11.69097 | 2576 ft | 126 kts | 85° |
| 2026-05-01 08:33 | 48.35778 | 11.70409 | 2400 ft | 127 kts | 84° |
| 2026-05-01 08:33 | 48.35900 | 11.71698 | 2196 ft | 125 kts | 83° |
| 2026-05-01 08:33 | 48.36004 | 11.72992 | 1997 ft | 121 kts | 85° |
| 2026-05-01 08:34 | 48.36090 | 11.74272 | 1807 ft | 126 kts | 83° |
| 2026-05-01 08:34 | 48.36196 | 11.75563 | 1647 ft | 125 kts | 86° |
| 2026-05-01 08:34 | 48.36288 | 11.76859 | 1519 ft | 124 kts | 85° |
| 2026-05-01 08:34 | 48.36388 | 11.78052 | 1488 ft | 97 kts | 84° |
| 2026-05-01 08:35 | 48.36435 | 11.78825 | 1483 ft | 56 kts | 84° |
| 2026-05-01 08:35 | 48.36446 | 11.79202 | 1482 ft | 28 kts | 98° |
| 2026-05-01 08:35 | 48.36405 | 11.79417 | 1480 ft | 18 kts | 111° |
| 2026-05-01 08:35 | 48.36366 | 11.79555 | 1481 ft | 10 kts | 114° |
| 2026-05-01 08:36 | 48.36345 | 11.79624 | 1478 ft | 8 kts | 114° |
| 2026-05-01 08:36 | 48.36324 | 11.79696 | 1481 ft | 3 kts | 114° |
| 2026-05-01 08:36 | 48.36310 | 11.79737 | 1478 ft | 5 kts | 119° |
| 2026-05-01 08:36 | 48.36287 | 11.79790 | 1475 ft | 6 kts | 137° |
| 2026-05-01 08:37 | 48.36262 | 11.79802 | 1477 ft | 1 kts | 197° |
| 2026-05-01 08:37 | 48.36241 | 11.79774 | 1475 ft | 11 kts | 234° |
| 2026-05-01 08:37 | 48.36215 | 11.79595 | 1483 ft | 22 kts | 267° |
| 2026-05-01 08:37 | 48.36187 | 11.79482 | 1478 ft | 6 kts | 205° |
| 2026-05-01 08:38 | 48.36138 | 11.79468 | 1481 ft | 6 kts | 182° |
| 2026-05-01 08:38 | 48.36127 | 11.79464 | 1490 ft | 2 kts | 209° |
| 2026-05-01 08:38 | 48.36111 | 11.79436 | 1488 ft | 7 kts | 240° |
| 2026-05-01 08:38 | 48.36095 | 11.79342 | 1488 ft | 13 kts | 263° |
| 2026-05-01 08:39 | 48.36082 | 11.79168 | 1484 ft | 21 kts | 265° |
| 2026-05-01 08:39 | 48.36065 | 11.78920 | 1480 ft | 26 kts | 263° |
| 2026-05-01 08:39 | 48.36042 | 11.78655 | 1490 ft | 25 kts | 263° |
| 2026-05-01 08:39 | 48.36021 | 11.78403 | 1479 ft | 24 kts | 263° |
| 2026-05-01 08:40 | 48.35990 | 11.77981 | 1478 ft | 13 kts | 265° |
| 2026-05-01 08:40 | 48.35977 | 11.77823 | 1478 ft | 12 kts | 262° |
| 2026-05-01 08:40 | 48.35961 | 11.77721 | 1480 ft | 8 kts | 240° |
| 2026-05-01 08:41 | 48.35929 | 11.77688 | 1475 ft | 6 kts | 188° |
| 2026-05-01 08:41 | 48.35914 | 11.77686 | 1482 ft | 0 kts | 179° |